RJNG(METAR)
01/24 01:00
METAR RJNG 231600Z VRB01KT 9999 FEW030 SCT050 M02/M04 Q1021 RMK
1CU030 3SC050 A3016=
戻る
トップページへ戻る
IMOC Co,.Ltd.